Aérodrome :
LOGIN :

S'inscrire | Disclaimer

   EN    FR    IT 

 










Légende :    VFR   VFR Marginal   IFR   IFR Intensif   IFR Très Intensif
Visi : 
Plafond : 
>= 8 km
>= 3000ft
5 à 8 km
1000 à 3000 ft
1500m à 5 km
500 à 1000 ft
800 à 1500m
200 à 500 ft
< 800m
< 200 ft
Symboles :   Orages  Brouillard  Fortes neiges  Fortes précipitations  Vent > 20 kt
SIGMETs :   Divers  Orages  Givrage  Turbulence  Onde Orograph.  Cendres Volcan.






- Altitude de l'aérodrome : 364 ft
- Code IATA : FRA


EDDF - Frankfurt Int.

DERNIER METAR :
  • 092020Z AUTO 03003KT 330V120 CAVOK 01/M02 Q1005 NOSIG

METARs EXPIRÉS :
  • 091950Z AUTO 02008KT 350V050 9999 FEW046 01/M02 Q1005 NOSIG
  • 091920Z AUTO 02008KT 9999 FEW047 01/M02 Q1005 NOSIG
  • 090450Z AUTO 08004KT 9999 FEW010 02/00 Q1006 NOSIG
  • 091850Z AUTO 02007KT 360V060 CAVOK 02/M02 Q1005 NOSIG
  • 091820Z AUTO 02008KT CAVOK 02/M02 Q1005 NOSIG
  • 091750Z AUTO 02008KT CAVOK 02/M02 Q1005 NOSIG

TAF TAF EDDF
Valide du 09 à 18h jusqu'au 11 à 00h UTC


091700Z 0918/1024 03007KT 9999 SCT045
BECMG 0918/0920 BKN045
PROB30
TEMPO 1000/1008 3000 -SN BR BKN012
PROB30
TEMPO 1008/1016 4000 -SHSN BKN012TCU



MET'MAP, la Météo Aéronautique d'un coup d'oeil ! - Copyright ORBIFLY Décembre 2007 - Disclaimer

ORBIFLY MET'MAP TEAM :

Programmation & Développement : Alexandra Zaïnal
Sur une idée originale de : Baudouin d'Aumeries
Soutien technique & logistique : Manuel Goepfert
Assistance : Marc-Olivier Méhu




SOURCES & CREDITS :

   NOAA